createdAt,value
2017-12-10T00:02:05.096Z,99901.73
2017-12-10T00:04:30.867Z,99892.19
2017-12-10T00:06:56.628Z,99895.64
2017-12-10T00:09:22.383Z,99890.45
2017-12-10T00:11:48.132Z,99903.03
2017-12-10T00:14:13.894Z,99896.53
2017-12-10T00:16:39.639Z,99889.52
2017-12-10T00:19:05.417Z,99893.02
2017-12-10T00:21:31.156Z,99881.70
2017-12-10T00:23:56.908Z,99882.15
2017-12-10T00:26:22.651Z,99880.36
2017-12-10T00:28:48.672Z,99875.63
2017-12-10T00:31:14.444Z,99869.55
2017-12-10T00:33:40.272Z,99866.98
2017-12-10T00:36:05.979Z,99858.69
2017-12-10T00:38:31.763Z,99861.68
2017-12-10T00:40:57.527Z,99862.56
2017-12-10T00:45:55.809Z,99856.96
2017-12-10T00:48:21.609Z,99854.84
2017-12-10T00:50:47.375Z,99847.49
2017-12-10T00:53:13.146Z,99850.09
2017-12-10T00:55:38.948Z,99854.90
2017-12-10T00:58:04.725Z,99847.06
2017-12-10T01:00:30.471Z,99850.94
2017-12-10T01:02:56.215Z,99843.58
2017-12-10T01:05:21.976Z,99835.33
2017-12-10T01:07:47.728Z,99841.41
2017-12-10T01:10:13.499Z,99840.95
2017-12-10T01:12:39.248Z,99830.05
2017-12-10T01:15:05.025Z,99819.63
2017-12-10T01:17:30.788Z,99820.03
2017-12-10T01:19:56.583Z,99821.34
2017-12-10T01:22:22.353Z,99820.16
2017-12-10T01:24:48.112Z,99819.27
2017-12-10T01:27:13.873Z,99818.41
2017-12-10T01:29:39.656Z,99817.05
2017-12-10T01:32:05.432Z,99811.38
2017-12-10T01:34:31.183Z,99800.59
2017-12-10T01:36:56.976Z,99793.72
2017-12-10T01:39:22.742Z,99797.11
2017-12-10T01:41:48.532Z,99791.03
2017-12-10T01:44:14.296Z,99791.44
2017-12-10T01:46:40.088Z,99781.06
2017-12-10T01:49:05.852Z,99776.25
2017-12-10T01:51:31.624Z,99780.14
2017-12-10T01:53:57.431Z,99778.39
2017-12-10T01:56:23.212Z,99771.44
2017-12-10T01:58:48.991Z,99769.34
2017-12-10T02:01:14.757Z,99767.57
2017-12-10T02:03:40.515Z,99768.02
2017-12-10T02:06:06.271Z,99752.80
2017-12-10T02:08:32.032Z,99750.67
2017-12-10T02:10:57.795Z,99750.68
2017-12-10T02:13:23.582Z,99745.47
2017-12-10T02:15:49.344Z,99740.70
2017-12-10T02:18:15.128Z,99737.69
2017-12-10T02:20:40.884Z,99725.52
2017-12-10T02:23:06.659Z,99722.46
2017-12-10T02:25:32.416Z,99725.91
2017-12-10T02:27:58.224Z,99724.60
2017-12-10T02:30:23.989Z,99725.44
2017-12-10T02:32:49.767Z,99717.20
2017-12-10T02:35:15.536Z,99711.13
2017-12-10T02:37:41.312Z,99704.22
2017-12-10T02:40:07.105Z,99699.05
2017-12-10T02:42:32.869Z,99689.98
2017-12-10T02:44:58.663Z,99691.61
2017-12-10T02:47:24.426Z,99694.63
2017-12-10T02:49:50.187Z,99686.38
2017-12-10T02:52:15.956Z,99687.23
2017-12-10T02:54:41.715Z,99682.86
2017-12-10T02:57:07.492Z,99679.40
2017-12-10T02:59:33.259Z,99675.05
2017-12-10T03:01:59.032Z,99675.92
2017-12-10T03:04:24.797Z,99676.02
2017-12-10T03:06:50.548Z,99660.73
2017-12-10T03:09:16.338Z,99659.88
2017-12-10T03:11:42.099Z,99657.30
2017-12-10T03:14:07.852Z,99652.91
2017-12-10T03:16:33.635Z,99652.48
2017-12-10T03:18:59.399Z,99649.00
2017-12-10T03:21:41.017Z,99647.27
2017-12-10T03:24:06.843Z,99632.64
2017-12-10T03:26:32.605Z,99643.39
2017-12-10T03:28:58.404Z,99642.98
2017-12-10T03:31:24.166Z,99640.41
2017-12-10T03:33:49.923Z,99634.39
2017-12-10T03:36:15.696Z,99639.09
2017-12-10T03:38:41.465Z,99639.09
2017-12-10T03:41:07.248Z,99631.31
2017-12-10T03:43:32.996Z,99633.05
2017-12-10T03:45:58.780Z,99623.56
2017-12-10T03:48:24.554Z,99616.61
2017-12-10T03:50:50.348Z,99617.06
2017-12-10T03:53:16.134Z,99613.63
2017-12-10T03:55:41.891Z,99613.08
2017-12-10T03:58:07.636Z,99612.64
2017-12-10T04:00:33.413Z,99611.77
2017-12-10T04:02:59.156Z,99606.62
2017-12-10T04:05:24.919Z,99594.42
2017-12-10T04:07:50.677Z,99606.19
2017-12-10T04:10:16.424Z,99599.17
2017-12-10T04:12:42.201Z,99597.84
2017-12-10T04:15:07.956Z,99596.14
2017-12-10T04:17:33.719Z,99596.95
2017-12-10T04:19:59.463Z,99589.09
2017-12-10T04:22:25.231Z,99580.50
2017-12-10T04:24:50.979Z,99586.98
2017-12-10T04:27:16.747Z,99573.54
2017-12-10T04:29:42.503Z,99576.54
2017-12-10T04:32:08.263Z,99575.73
2017-12-10T04:34:34.015Z,99574.02
2017-12-10T04:36:59.776Z,99571.36
2017-12-10T04:39:25.520Z,99560.45
2017-12-10T04:41:51.275Z,99557.08
2017-12-10T04:44:17.015Z,99551.89
2017-12-10T04:46:42.782Z,99550.14
2017-12-10T04:49:08.531Z,99538.77
2017-12-10T04:51:34.292Z,99548.80
2017-12-10T04:54:00.035Z,99539.62
2017-12-10T04:56:25.788Z,99543.94
2017-12-10T04:58:51.556Z,99535.36
2017-12-10T05:01:17.290Z,99538.84
2017-12-10T05:03:43.039Z,99539.69
2017-12-10T05:06:08.803Z,99529.17
2017-12-10T05:08:34.580Z,99528.81
2017-12-10T05:11:00.331Z,99527.40
2017-12-10T05:13:26.100Z,99531.73
2017-12-10T05:15:51.843Z,99522.28
2017-12-10T05:18:17.609Z,99522.80
2017-12-10T05:20:43.357Z,99508.83
2017-12-10T05:23:09.118Z,99510.20
2017-12-10T05:25:34.863Z,99505.92
2017-12-10T05:28:00.647Z,99498.52
2017-12-10T05:30:26.398Z,99496.78
2017-12-10T05:32:52.156Z,99484.99
2017-12-10T05:35:17.911Z,99497.56
2017-12-10T05:37:43.673Z,99483.72
2017-12-10T05:40:09.443Z,99477.69
2017-12-10T05:42:35.170Z,99482.37
2017-12-10T05:45:00.948Z,99478.48
2017-12-10T05:47:26.680Z,99477.63
2017-12-10T05:49:52.446Z,99470.21
2017-12-10T05:52:18.196Z,99461.81
2017-12-10T05:54:43.952Z,99451.02
2017-12-10T05:57:09.707Z,99443.78
2017-12-10T05:59:35.464Z,99443.82
2017-12-10T06:02:01.224Z,99438.14
2017-12-10T06:04:26.978Z,99437.73
2017-12-10T06:06:52.736Z,99435.50
2017-12-10T06:09:18.486Z,99438.58
2017-12-10T06:11:44.239Z,99431.13
2017-12-10T06:14:09.991Z,99424.14
2017-12-10T06:16:35.732Z,99419.39
2017-12-10T06:19:01.487Z,99420.28
2017-12-10T06:21:27.242Z,99416.78
2017-12-10T06:23:52.998Z,99417.09
2017-12-10T06:26:18.754Z,99413.27
2017-12-10T06:28:44.515Z,99410.70
2017-12-10T06:31:10.263Z,99402.34
2017-12-10T06:33:36.016Z,99394.55
2017-12-10T06:36:01.772Z,99391.54
2017-12-10T06:38:27.512Z,99388.05
2017-12-10T06:40:53.271Z,99379.83
2017-12-10T06:43:19.015Z,99382.90
2017-12-10T06:45:44.793Z,99376.34
2017-12-10T06:48:10.536Z,99364.70
2017-12-10T06:50:36.300Z,99360.81
2017-12-10T06:53:02.041Z,99356.02
2017-12-10T06:55:27.816Z,99363.75
2017-12-10T06:57:53.587Z,99364.66
2017-12-10T07:00:19.347Z,99352.85
2017-12-10T07:02:45.103Z,99346.42
2017-12-10T07:05:10.859Z,99334.76
2017-12-10T07:07:36.610Z,99323.44
2017-12-10T07:10:02.368Z,99326.02
2017-12-10T07:12:28.129Z,99321.16
2017-12-10T07:14:53.883Z,99320.33
2017-12-10T07:17:19.627Z,99317.33
2017-12-10T07:19:45.371Z,99309.20
2017-12-10T07:22:11.132Z,99307.09
2017-12-10T07:24:36.867Z,99305.57
2017-12-10T07:27:02.622Z,99301.23
2017-12-10T07:29:28.398Z,99298.61
2017-12-10T07:31:54.159Z,99291.56
2017-12-10T07:34:19.901Z,99283.74
2017-12-10T07:36:45.663Z,99282.52
2017-12-10T07:39:11.411Z,99275.67
2017-12-10T07:41:37.176Z,99280.03
2017-12-10T07:44:02.914Z,99276.66
2017-12-10T07:46:28.665Z,99267.02
2017-12-10T07:48:54.423Z,99270.94
2017-12-10T07:51:20.180Z,99263.52
2017-12-10T07:53:45.942Z,99261.34
2017-12-10T07:56:11.683Z,99257.05
2017-12-10T07:58:37.458Z,99259.29
2017-12-10T08:01:03.223Z,99250.91
2017-12-10T08:03:29.018Z,99254.81
2017-12-10T08:05:54.762Z,99257.80
2017-12-10T08:08:20.536Z,99253.08
2017-12-10T08:10:46.299Z,99243.56
2017-12-10T08:13:12.071Z,99247.50
2017-12-10T08:15:37.815Z,99239.52
2017-12-10T08:18:03.587Z,99232.95
2017-12-10T08:20:29.343Z,99219.71
2017-12-10T08:22:55.100Z,99214.94
2017-12-10T08:25:20.842Z,99209.36
2017-12-10T08:27:46.625Z,99202.05
2017-12-10T08:30:12.391Z,99196.73
2017-12-10T08:32:38.137Z,99190.63
2017-12-10T08:35:03.903Z,99192.77
2017-12-10T08:37:29.643Z,99195.02
2017-12-10T08:39:55.391Z,99183.25
2017-12-10T08:42:21.130Z,99165.86
2017-12-10T08:44:46.874Z,99165.49
2017-12-10T08:47:12.627Z,99162.44
2017-12-10T08:49:38.397Z,99161.53
2017-12-10T08:52:04.152Z,99160.95
2017-12-10T08:54:29.907Z,99150.72
2017-12-10T08:56:55.642Z,99154.80
2017-12-10T08:59:21.403Z,99147.00
2017-12-10T09:01:47.169Z,99147.53
2017-12-10T09:04:12.940Z,99140.08
2017-12-10T09:06:38.698Z,99139.53
2017-12-10T09:09:04.455Z,99131.94
2017-12-10T09:11:30.202Z,99127.24
2017-12-10T09:13:55.958Z,99121.48
2017-12-10T09:16:21.711Z,99125.39
2017-12-10T09:18:47.479Z,99114.48
2017-12-10T09:21:13.234Z,99113.08
2017-12-10T09:23:38.990Z,99108.00
2017-12-10T09:26:04.752Z,99106.35
2017-12-10T09:28:30.516Z,99096.33
2017-12-10T09:30:56.286Z,99093.70
2017-12-10T09:33:22.030Z,99093.27
2017-12-10T09:35:47.790Z,99079.75
2017-12-10T09:38:13.555Z,99071.94
2017-12-10T09:40:39.311Z,99065.02
2017-12-10T09:43:05.059Z,99055.73
2017-12-10T09:45:30.836Z,99051.00
2017-12-10T09:47:56.599Z,99037.92
2017-12-10T09:50:22.351Z,99021.33
2017-12-10T09:52:48.101Z,99010.23
2017-12-10T09:55:13.860Z,98998.62
2017-12-10T09:57:39.602Z,98993.50
2017-12-10T10:00:05.399Z,98983.61
2017-12-10T10:02:31.147Z,98986.72
2017-12-10T10:04:57.005Z,98977.59
2017-12-10T10:07:22.750Z,98972.56
2017-12-10T10:09:48.611Z,98976.41
2017-12-10T10:12:14.382Z,98965.09
2017-12-10T10:14:40.116Z,98956.19
2017-12-10T10:17:05.858Z,98948.00
2017-12-10T10:19:31.619Z,98941.09
2017-12-10T10:21:57.375Z,98932.44
2017-12-10T10:24:23.114Z,98907.84
2017-12-10T10:26:48.883Z,98924.66
2017-12-10T10:29:14.716Z,98910.66
2017-12-10T10:31:40.520Z,98900.36
2017-12-10T10:34:06.258Z,98902.94
2017-12-10T10:36:32.028Z,98901.00
2017-12-10T10:38:57.795Z,98890.98
2017-12-10T10:41:23.644Z,98884.44
2017-12-10T10:43:49.391Z,98889.34
2017-12-10T10:46:15.160Z,98874.02
2017-12-10T10:48:41.009Z,98858.31
2017-12-10T10:51:06.770Z,98841.11
2017-12-10T10:53:32.527Z,98836.27
2017-12-10T10:55:58.279Z,98828.95
2017-12-10T10:58:24.063Z,98826.41
2017-12-10T11:00:49.815Z,98827.82
2017-12-10T11:03:15.708Z,98827.45
2017-12-10T11:05:41.446Z,98817.66
2017-12-10T11:08:07.216Z,98818.06
2017-12-10T11:10:32.962Z,98808.47
2017-12-10T11:12:58.742Z,98799.13
2017-12-10T11:15:24.491Z,98797.43
2017-12-10T11:17:50.308Z,98796.56
2017-12-10T11:20:16.841Z,98794.06
2017-12-10T11:22:42.637Z,98786.20
2017-12-10T11:25:08.398Z,98778.69
2017-12-10T11:27:34.151Z,98773.08
2017-12-10T11:29:59.917Z,98766.86
2017-12-10T11:32:25.662Z,98754.98
2017-12-10T11:34:51.424Z,98745.11
2017-12-10T11:37:17.179Z,98738.66
2017-12-10T11:39:42.948Z,98728.39
2017-12-10T11:42:08.715Z,98724.95
2017-12-10T11:44:34.467Z,98715.84
2017-12-10T11:47:00.211Z,98711.86
2017-12-10T11:49:25.972Z,98697.02
2017-12-10T11:51:51.715Z,98701.00
2017-12-10T11:54:17.466Z,98695.94
2017-12-10T11:56:43.224Z,98692.50
2017-12-10T11:59:09.003Z,98688.67
2017-12-10T12:01:34.756Z,98689.07
2017-12-10T12:04:01.110Z,98681.61
2017-12-10T12:06:28.007Z,98671.31
2017-12-10T12:08:53.750Z,98668.63
2017-12-10T12:11:19.503Z,98658.28
2017-12-10T12:13:45.245Z,98649.68
2017-12-10T12:16:11.027Z,98652.21
2017-12-10T12:18:36.777Z,98642.22
2017-12-10T12:21:02.543Z,98646.84
2017-12-10T12:23:28.290Z,98629.08
2017-12-10T12:25:54.050Z,98623.87
2017-12-10T12:28:19.807Z,98606.03
2017-12-10T12:30:45.567Z,98602.08
2017-12-10T12:33:11.328Z,98601.25
2017-12-10T12:35:37.094Z,98593.28
2017-12-10T12:38:02.840Z,98588.78
2017-12-10T12:40:28.600Z,98581.19
2017-12-10T12:42:54.345Z,98573.07
2017-12-10T12:45:20.101Z,98569.78
2017-12-10T12:47:45.858Z,98562.77
2017-12-10T12:50:11.595Z,98557.44
2017-12-10T12:52:37.347Z,98544.41
2017-12-10T12:55:03.088Z,98543.45
2017-12-10T12:57:28.849Z,98540.84
2017-12-10T12:59:54.607Z,98529.30
2017-12-10T13:02:20.358Z,98524.91
2017-12-10T13:04:46.108Z,98520.22
2017-12-10T13:07:11.871Z,98512.17
2017-12-10T13:09:37.627Z,98509.05
2017-12-10T13:12:03.388Z,98509.22
2017-12-10T13:14:29.131Z,98494.72
2017-12-10T13:16:54.895Z,98489.21
2017-12-10T13:19:20.638Z,98477.74
2017-12-10T13:21:46.424Z,98476.45
2017-12-10T13:24:12.196Z,98464.89
2017-12-10T13:26:37.956Z,98457.98
2017-12-10T13:29:03.739Z,98444.92
2017-12-10T13:31:29.478Z,98451.17
2017-12-10T13:33:55.243Z,98433.63
2017-12-10T13:36:20.979Z,98434.93
2017-12-10T13:38:46.747Z,98430.45
2017-12-10T13:41:12.500Z,98415.74
2017-12-10T13:43:38.262Z,98418.01
2017-12-10T13:46:04.012Z,98409.28
2017-12-10T13:48:29.760Z,98408.20
2017-12-10T13:50:55.504Z,98408.33
2017-12-10T13:53:21.254Z,98396.97
2017-12-10T13:55:46.994Z,98388.23
2017-12-10T13:58:12.775Z,98387.67
2017-12-10T14:00:38.555Z,98385.20
2017-12-10T14:03:04.306Z,98375.64
2017-12-10T14:05:30.056Z,98368.75
2017-12-10T14:07:55.797Z,98372.39
2017-12-10T14:10:21.575Z,98372.05
2017-12-10T14:12:47.325Z,98372.14
2017-12-10T14:15:13.091Z,98363.94
2017-12-10T14:17:38.835Z,98353.87
2017-12-10T14:20:04.599Z,98355.17
2017-12-10T14:22:30.346Z,98345.05
2017-12-10T14:24:56.102Z,98351.69
2017-12-10T14:27:21.844Z,98343.94
2017-12-10T14:29:47.622Z,98342.28
2017-12-10T14:32:13.366Z,98335.06
2017-12-10T14:34:39.144Z,98332.69
2017-12-10T14:37:04.904Z,98325.40
2017-12-10T14:39:30.664Z,98324.84
2017-12-10T14:41:56.395Z,98324.14
2017-12-10T14:44:22.168Z,98325.88
2017-12-10T14:46:47.953Z,98312.78
2017-12-10T14:49:13.716Z,98315.77
2017-12-10T14:51:39.466Z,98310.36
2017-12-10T14:54:05.220Z,98304.75
2017-12-10T14:56:30.972Z,98304.41
2017-12-10T14:58:56.720Z,98299.95
2017-12-10T15:01:22.496Z,98299.00
2017-12-10T15:03:48.238Z,98301.21
2017-12-10T15:06:14.007Z,98295.66
2017-12-10T15:08:39.850Z,98294.89
2017-12-10T15:11:05.615Z,98289.16
2017-12-10T15:13:31.375Z,98285.29
2017-12-10T15:15:57.146Z,98285.60
2017-12-10T15:18:22.891Z,98280.96
2017-12-10T15:20:48.683Z,98278.13
2017-12-10T15:23:14.431Z,98280.05
2017-12-10T15:25:40.192Z,98279.52
2017-12-10T15:28:05.959Z,98272.33
2017-12-10T15:30:31.735Z,98272.09
2017-12-10T15:32:57.487Z,98257.97
2017-12-10T15:35:23.247Z,98267.08
2017-12-10T15:37:48.997Z,98256.41
2017-12-10T15:40:14.827Z,98255.19
2017-12-10T15:42:40.566Z,98249.00
2017-12-10T15:45:06.322Z,98239.30
2017-12-10T15:47:32.095Z,98237.44
2017-12-10T15:49:57.870Z,98229.50
2017-12-10T15:52:23.622Z,98229.45
2017-12-10T15:54:49.366Z,98224.43
2017-12-10T15:57:15.130Z,98215.46
2017-12-10T15:59:40.875Z,98217.85
2017-12-10T16:02:06.628Z,98205.19
2017-12-10T16:04:32.375Z,98204.28
2017-12-10T16:06:58.144Z,98201.03
2017-12-10T16:09:23.891Z,98197.05
2017-12-10T16:11:49.646Z,98192.48
2017-12-10T16:14:15.394Z,98184.86
2017-12-10T16:16:41.151Z,98183.34
2017-12-10T16:19:06.900Z,98177.66
2017-12-10T16:21:32.646Z,98180.83
2017-12-10T16:23:58.477Z,98168.59
2017-12-10T16:26:24.227Z,98162.08
2017-12-10T16:28:49.989Z,98166.70
2017-12-10T16:31:15.739Z,98162.23
2017-12-10T16:33:41.514Z,98167.01
2017-12-10T16:36:07.265Z,98155.22
2017-12-10T16:38:33.027Z,98152.27
2017-12-10T16:40:58.775Z,98152.76
2017-12-10T16:43:24.540Z,98149.20
2017-12-10T16:45:50.295Z,98147.98
2017-12-10T16:48:16.048Z,98134.80
2017-12-10T16:50:41.820Z,98133.94
2017-12-10T16:53:07.609Z,98127.66
2017-12-10T16:55:33.361Z,98124.35
2017-12-10T16:57:59.130Z,98112.35
2017-12-10T17:00:24.880Z,98116.93
2017-12-10T17:02:50.645Z,98109.70
2017-12-10T17:05:16.407Z,98105.27
2017-12-10T17:07:42.147Z,98098.78
2017-12-10T17:10:07.955Z,98100.56
2017-12-10T17:12:33.700Z,98097.27
2017-12-10T17:14:59.476Z,98082.93
2017-12-10T17:17:25.231Z,98082.20
2017-12-10T17:19:50.987Z,98077.39
2017-12-10T17:22:16.727Z,98070.02
2017-12-10T17:24:42.491Z,98076.31
2017-12-10T17:27:08.247Z,98073.19
2017-12-10T17:29:34.036Z,98073.77
2017-12-10T17:31:59.765Z,98065.58
2017-12-10T17:34:25.523Z,98056.48
2017-12-10T17:36:51.275Z,98050.02
2017-12-10T17:39:17.044Z,98043.58
2017-12-10T17:41:42.792Z,98047.42
2017-12-10T17:44:08.568Z,98047.47
2017-12-10T17:46:34.314Z,98036.97
2017-12-10T17:49:00.074Z,98036.64
2017-12-10T17:51:25.815Z,98028.79
2017-12-10T17:53:51.574Z,98022.83
2017-12-10T17:56:17.346Z,98023.58
2017-12-10T17:58:43.111Z,98020.16
2017-12-10T18:01:08.864Z,98015.45
2017-12-10T18:03:34.607Z,98006.39
2017-12-10T18:06:00.358Z,97999.37
2017-12-10T18:08:26.095Z,98002.93
2017-12-10T18:10:51.879Z,98002.36
2017-12-10T18:13:17.618Z,98000.23
2017-12-10T18:15:43.367Z,97987.38
2017-12-10T18:18:09.112Z,97980.45
2017-12-10T18:20:35.010Z,97972.70
2017-12-10T18:23:00.775Z,97968.77
2017-12-10T18:25:26.544Z,97969.77
2017-12-10T18:27:52.286Z,97962.06
2017-12-10T18:30:18.080Z,97958.16
2017-12-10T18:32:43.814Z,97952.10
2017-12-10T18:35:09.581Z,97950.70
2017-12-10T18:37:35.346Z,97948.34
2017-12-10T18:40:01.107Z,97951.81
2017-12-10T18:42:26.910Z,97942.95
2017-12-10T18:44:52.690Z,97944.73
2017-12-10T18:47:18.464Z,97940.59
2017-12-10T18:49:44.227Z,97942.53
2017-12-10T18:52:10.828Z,97935.16
2017-12-10T18:54:36.597Z,97935.89
2017-12-10T18:57:02.347Z,97924.96
2017-12-10T18:59:28.107Z,97928.33
2017-12-10T19:01:53.859Z,97921.45
2017-12-10T19:04:19.639Z,97917.16
2017-12-10T19:06:45.384Z,97915.10
2017-12-10T19:09:11.135Z,97912.74
2017-12-10T19:11:36.904Z,97903.30
2017-12-10T19:14:02.661Z,97903.17
2017-12-10T19:16:28.443Z,97896.47
2017-12-10T19:18:54.187Z,97895.47
2017-12-10T19:21:19.971Z,97885.11
2017-12-10T19:23:45.771Z,97884.73
2017-12-10T19:26:11.540Z,97887.91
2017-12-10T19:28:37.307Z,97878.77
2017-12-10T19:31:03.072Z,97872.31
2017-12-10T19:33:28.822Z,97871.98
2017-12-10T19:35:54.583Z,97870.10
2017-12-10T19:38:20.348Z,97871.11
2017-12-10T19:40:46.110Z,97866.31
2017-12-10T19:43:11.854Z,97859.23
2017-12-10T19:45:37.620Z,97860.11
2017-12-10T19:48:03.376Z,97862.31
2017-12-10T19:50:29.130Z,97856.73
2017-12-10T19:52:54.886Z,97854.09
2017-12-10T19:55:20.648Z,97850.19
2017-12-10T19:57:46.420Z,97843.92
2017-12-10T20:00:12.167Z,97842.11
2017-12-10T20:02:37.928Z,97830.52
2017-12-10T20:05:03.684Z,97824.45
2017-12-10T20:07:29.441Z,97826.58
2017-12-10T20:09:55.190Z,97827.49
2017-12-10T20:12:20.956Z,97818.83
2017-12-10T20:14:46.715Z,97813.69
2017-12-10T20:17:12.504Z,97809.78
2017-12-10T20:19:38.265Z,97804.31
2017-12-10T20:22:04.039Z,97812.58
2017-12-10T20:24:29.780Z,97808.26
2017-12-10T20:26:55.550Z,97808.30
2017-12-10T20:29:21.307Z,97808.86
2017-12-10T20:31:47.063Z,97806.91
2017-12-10T20:34:12.818Z,97806.05
2017-12-10T20:36:38.639Z,97807.67
2017-12-10T20:39:04.404Z,97809.35
2017-12-10T20:41:30.960Z,97778.74
2017-12-10T20:43:56.710Z,97808.39
2017-12-10T20:46:22.472Z,97800.17
2017-12-10T20:48:48.222Z,97802.38
2017-12-10T20:51:13.962Z,97802.20
2017-12-10T20:53:39.733Z,97807.39
2017-12-10T20:56:05.479Z,97805.90
2017-12-10T20:58:31.239Z,97802.38
2017-12-10T21:00:56.982Z,97808.02
2017-12-10T21:03:22.748Z,97802.98
2017-12-10T21:05:48.532Z,97809.82
2017-12-10T21:08:14.298Z,97804.73
2017-12-10T21:10:40.046Z,97803.40
2017-12-10T21:13:05.812Z,97797.26
2017-12-10T21:15:31.575Z,97800.22
2017-12-10T21:17:57.368Z,97791.07
2017-12-10T21:20:23.116Z,97784.84
2017-12-10T21:22:49.298Z,97784.84
2017-12-10T21:25:15.084Z,97784.31
2017-12-10T21:27:40.838Z,97785.82
2017-12-10T21:30:06.594Z,97781.61
2017-12-10T21:32:32.342Z,97776.39
2017-12-10T21:34:58.122Z,97777.74
2017-12-10T21:37:23.874Z,97776.88
2017-12-10T21:39:49.654Z,97772.02
2017-12-10T21:42:15.415Z,97778.34
2017-12-10T21:44:41.165Z,97768.61
2017-12-10T21:47:06.902Z,97759.29
2017-12-10T21:49:32.677Z,97763.19
2017-12-10T21:51:58.431Z,97769.27
2017-12-10T21:54:24.194Z,97763.52
2017-12-10T21:56:49.955Z,97778.36
2017-12-10T21:59:15.743Z,97771.63
2017-12-10T22:01:41.508Z,97775.84
2017-12-10T22:04:07.271Z,97774.13
2017-12-10T22:06:33.029Z,97779.70
2017-12-10T22:08:58.771Z,97772.40
2017-12-10T22:11:24.535Z,97776.14
2017-12-10T22:13:50.296Z,97770.47
2017-12-10T22:16:16.039Z,97767.00
2017-12-10T22:18:41.794Z,97770.77
2017-12-10T22:21:07.547Z,97761.11
2017-12-10T22:23:33.295Z,97735.73
2017-12-10T22:25:59.051Z,97760.19
2017-12-10T22:28:24.807Z,97758.88
2017-12-10T22:30:50.568Z,97756.10
2017-12-10T22:33:16.327Z,97751.02
2017-12-10T22:35:42.075Z,97755.23
2017-12-10T22:38:07.830Z,97724.00
2017-12-10T22:40:33.567Z,97746.52
2017-12-10T22:42:59.320Z,97737.64
2017-12-10T22:45:25.081Z,97738.63
2017-12-10T22:47:50.842Z,97731.16
2017-12-10T22:50:16.574Z,97722.02
2017-12-10T22:52:42.327Z,97716.86
2017-12-10T22:55:08.071Z,97722.23
2017-12-10T22:57:33.818Z,97722.48
2017-12-10T22:59:59.575Z,97727.29
2017-12-10T23:02:25.330Z,97729.64
2017-12-10T23:04:51.080Z,97731.27
2017-12-10T23:07:16.847Z,97730.28
2017-12-10T23:09:42.612Z,97730.13
2017-12-10T23:12:08.356Z,97733.53
2017-12-10T23:14:40.097Z,97738.45
2017-12-10T23:17:05.850Z,97741.09
2017-12-10T23:19:31.875Z,97738.18
2017-12-10T23:21:58.080Z,97741.00
2017-12-10T23:24:24.068Z,97739.97
2017-12-10T23:26:49.807Z,97741.28
2017-12-10T23:29:15.749Z,97736.95
2017-12-10T23:31:41.535Z,97729.73
2017-12-10T23:34:07.312Z,97734.18
2017-12-10T23:36:33.591Z,97729.31
2017-12-10T23:38:59.394Z,97729.74
2017-12-10T23:41:25.132Z,97730.84
2017-12-10T23:43:51.726Z,97699.75
2017-12-10T23:46:17.475Z,97717.94
2017-12-10T23:48:43.231Z,97721.42
2017-12-10T23:51:08.967Z,97720.94
2017-12-10T23:53:34.735Z,97718.44
2017-12-10T23:56:00.573Z,97721.35
2017-12-10T23:58:26.331Z,97717.84
